sensor_id;sensor_type;location;lat;lon;timestamp;temperature;humidity
5842;DHT22;2947;52.276;9.946;2023-11-19T00:00:50;6.30;99.90
5842;DHT22;2947;52.276;9.946;2023-11-19T00:03:17;6.40;99.90
5842;DHT22;2947;52.276;9.946;2023-11-19T00:05:43;6.00;99.90
5842;DHT22;2947;52.276;9.946;2023-11-19T00:08:10;6.40;99.90
5842;DHT22;2947;52.276;9.946;2023-11-19T00:10:35;6.40;99.90
5842;DHT22;2947;52.276;9.946;2023-11-19T00:13:01;6.40;99.90
5842;DHT22;2947;52.276;9.946;2023-11-19T00:15:28;6.50;99.90
5842;DHT22;2947;52.276;9.946;2023-11-19T00:17:54;6.50;99.90
5842;DHT22;2947;52.276;9.946;2023-11-19T00:20:20;6.50;99.90
5842;DHT22;2947;52.276;9.946;2023-11-19T00:22:47;6.60;99.90
5842;DHT22;2947;52.276;9.946;2023-11-19T00:25:20;6.60;99.90
5842;DHT22;2947;52.276;9.946;2023-11-19T00:27:47;6.70;99.90
5842;DHT22;2947;52.276;9.946;2023-11-19T00:30:13;6.60;99.90
5842;DHT22;2947;52.276;9.946;2023-11-19T00:32:39;6.70;99.90
5842;DHT22;2947;52.276;9.946;2023-11-19T00:35:06;6.70;99.90
5842;DHT22;2947;52.276;9.946;2023-11-19T00:37:36;6.70;99.90
5842;DHT22;2947;52.276;9.946;2023-11-19T00:40:02;6.70;99.90
5842;DHT22;2947;52.276;9.946;2023-11-19T00:42:31;6.70;99.90
5842;DHT22;2947;52.276;9.946;2023-11-19T00:44:57;6.70;99.90
5842;DHT22;2947;52.276;9.946;2023-11-19T00:47:23;6.70;99.90
5842;DHT22;2947;52.276;9.946;2023-11-19T00:49:49;6.70;99.90
5842;DHT22;2947;52.276;9.946;2023-11-19T00:52:18;6.70;99.90
5842;DHT22;2947;52.276;9.946;2023-11-19T00:54:44;6.70;99.90
5842;DHT22;2947;52.276;9.946;2023-11-19T00:57:10;6.70;99.90
5842;DHT22;2947;52.276;9.946;2023-11-19T00:59:36;7.80;99.90
5842;DHT22;2947;52.276;9.946;2023-11-19T01:02:02;6.80;99.90
5842;DHT22;2947;52.276;9.946;2023-11-19T01:04:33;6.80;99.90
5842;DHT22;2947;52.276;9.946;2023-11-19T01:07:02;6.80;99.90
5842;DHT22;2947;52.276;9.946;2023-11-19T01:09:38;6.90;99.90
5842;DHT22;2947;52.276;9.946;2023-11-19T01:12:04;6.90;99.90
5842;DHT22;2947;52.276;9.946;2023-11-19T01:14:30;7.00;99.90
5842;DHT22;2947;52.276;9.946;2023-11-19T01:16:56;6.00;99.90
5842;DHT22;2947;52.276;9.946;2023-11-19T01:19:22;7.10;99.90
5842;DHT22;2947;52.276;9.946;2023-11-19T01:21:49;8.50;99.90
5842;DHT22;2947;52.276;9.946;2023-11-19T01:24:15;7.20;99.90
5842;DHT22;2947;52.276;9.946;2023-11-19T01:26:41;7.20;99.90
5842;DHT22;2947;52.276;9.946;2023-11-19T01:29:14;7.20;99.90
5842;DHT22;2947;52.276;9.946;2023-11-19T01:31:41;7.20;99.90
5842;DHT22;2947;52.276;9.946;2023-11-19T01:34:07;7.30;99.90
5842;DHT22;2947;52.276;9.946;2023-11-19T01:36:33;7.40;99.90
5842;DHT22;2947;52.276;9.946;2023-11-19T01:38:59;7.30;99.90
5842;DHT22;2947;52.276;9.946;2023-11-19T01:41:24;7.30;99.90
5842;DHT22;2947;52.276;9.946;2023-11-19T01:43:50;7.30;99.90
5842;DHT22;2947;52.276;9.946;2023-11-19T01:46:16;7.30;99.90
5842;DHT22;2947;52.276;9.946;2023-11-19T01:48:44;7.40;99.90
5842;DHT22;2947;52.276;9.946;2023-11-19T01:51:12;7.40;99.90
5842;DHT22;2947;52.276;9.946;2023-11-19T01:53:39;7.40;99.90
5842;DHT22;2947;52.276;9.946;2023-11-19T01:56:07;7.40;99.90
5842;DHT22;2947;52.276;9.946;2023-11-19T01:58:36;7.40;99.90
5842;DHT22;2947;52.276;9.946;2023-11-19T02:01:05;7.50;99.90
5842;DHT22;2947;52.276;9.946;2023-11-19T02:03:31;7.50;99.90
5842;DHT22;2947;52.276;9.946;2023-11-19T02:05:59;6.90;99.90
5842;DHT22;2947;52.276;9.946;2023-11-19T02:08:25;7.50;99.90
5842;DHT22;2947;52.276;9.946;2023-11-19T02:10:52;7.50;99.90
5842;DHT22;2947;52.276;9.946;2023-11-19T02:13:20;7.50;99.90
5842;DHT22;2947;52.276;9.946;2023-11-19T02:15:46;7.50;99.90
5842;DHT22;2947;52.276;9.946;2023-11-19T02:18:23;7.50;99.90
5842;DHT22;2947;52.276;9.946;2023-11-19T02:20:56;7.60;99.90
5842;DHT22;2947;52.276;9.946;2023-11-19T02:23:23;7.60;99.90
5842;DHT22;2947;52.276;9.946;2023-11-19T02:28:39;7.70;99.90
5842;DHT22;2947;52.276;9.946;2023-11-19T02:31:05;7.80;99.90
5842;DHT22;2947;52.276;9.946;2023-11-19T02:33:35;7.80;99.90
5842;DHT22;2947;52.276;9.946;2023-11-19T02:36:02;7.80;99.90
5842;DHT22;2947;52.276;9.946;2023-11-19T02:38:33;7.80;99.90
5842;DHT22;2947;52.276;9.946;2023-11-19T02:40:59;7.80;99.90
5842;DHT22;2947;52.276;9.946;2023-11-19T02:43:30;7.90;99.90
5842;DHT22;2947;52.276;9.946;2023-11-19T02:46:02;7.90;99.90
5842;DHT22;2947;52.276;9.946;2023-11-19T02:48:30;7.90;99.90
5842;DHT22;2947;52.276;9.946;2023-11-19T02:50:56;7.90;99.90
5842;DHT22;2947;52.276;9.946;2023-11-19T02:53:24;7.90;99.90
5842;DHT22;2947;52.276;9.946;2023-11-19T02:55:53;7.90;99.90
5842;DHT22;2947;52.276;9.946;2023-11-19T02:58:18;8.00;99.90
5842;DHT22;2947;52.276;9.946;2023-11-19T03:00:49;8.00;99.90
5842;DHT22;2947;52.276;9.946;2023-11-19T03:03:22;8.00;99.90
5842;DHT22;2947;52.276;9.946;2023-11-19T03:05:54;7.40;99.90
5842;DHT22;2947;52.276;9.946;2023-11-19T03:08:20;8.10;99.90
5842;DHT22;2947;52.276;9.946;2023-11-19T03:10:47;8.10;99.90
5842;DHT22;2947;52.276;9.946;2023-11-19T03:13:14;8.20;99.90
5842;DHT22;2947;52.276;9.946;2023-11-19T03:15:41;8.20;99.90
5842;DHT22;2947;52.276;9.946;2023-11-19T03:18:07;8.20;99.90
5842;DHT22;2947;52.276;9.946;2023-11-19T03:20:33;8.30;99.90
5842;DHT22;2947;52.276;9.946;2023-11-19T03:22:59;8.30;99.90
5842;DHT22;2947;52.276;9.946;2023-11-19T03:25:27;8.40;99.90
5842;DHT22;2947;52.276;9.946;2023-11-19T03:27:58;8.40;99.90
5842;DHT22;2947;52.276;9.946;2023-11-19T03:30:26;8.40;99.90
5842;DHT22;2947;52.276;9.946;2023-11-19T03:32:52;8.40;99.90
5842;DHT22;2947;52.276;9.946;2023-11-19T03:35:17;8.50;99.90
5842;DHT22;2947;52.276;9.946;2023-11-19T03:37:43;8.50;99.90
5842;DHT22;2947;52.276;9.946;2023-11-19T03:40:09;8.50;99.90
5842;DHT22;2947;52.276;9.946;2023-11-19T03:42:36;8.60;99.90
5842;DHT22;2947;52.276;9.946;2023-11-19T03:45:02;8.60;99.90
5842;DHT22;2947;52.276;9.946;2023-11-19T03:47:29;8.60;99.90
5842;DHT22;2947;52.276;9.946;2023-11-19T03:49:58;8.70;99.90
5842;DHT22;2947;52.276;9.946;2023-11-19T03:52:24;8.70;99.90
5842;DHT22;2947;52.276;9.946;2023-11-19T03:54:49;8.80;99.90
5842;DHT22;2947;52.276;9.946;2023-11-19T03:57:15;8.80;99.90
5842;DHT22;2947;52.276;9.946;2023-11-19T03:59:41;8.80;99.90
5842;DHT22;2947;52.276;9.946;2023-11-19T04:02:07;8.80;99.90
5842;DHT22;2947;52.276;9.946;2023-11-19T04:04:33;8.80;99.90
5842;DHT22;2947;52.276;9.946;2023-11-19T04:07:00;8.90;99.90
5842;DHT22;2947;52.276;9.946;2023-11-19T04:09:26;8.90;99.90
5842;DHT22;2947;52.276;9.946;2023-11-19T04:11:52;8.90;99.90
5842;DHT22;2947;52.276;9.946;2023-11-19T04:14:18;9.00;99.90
5842;DHT22;2947;52.276;9.946;2023-11-19T04:16:46;9.00;99.90
5842;DHT22;2947;52.276;9.946;2023-11-19T04:19:12;9.00;99.90
5842;DHT22;2947;52.276;9.946;2023-11-19T04:21:41;8.40;99.90
5842;DHT22;2947;52.276;9.946;2023-11-19T04:24:08;9.00;99.90
5842;DHT22;2947;52.276;9.946;2023-11-19T04:26:34;9.10;99.90
5842;DHT22;2947;52.276;9.946;2023-11-19T04:29:01;9.10;99.90
5842;DHT22;2947;52.276;9.946;2023-11-19T04:31:30;9.10;99.90
5842;DHT22;2947;52.276;9.946;2023-11-19T04:33:57;9.20;99.90
5842;DHT22;2947;52.276;9.946;2023-11-19T04:36:22;9.20;99.90
5842;DHT22;2947;52.276;9.946;2023-11-19T04:38:50;9.30;99.90
5842;DHT22;2947;52.276;9.946;2023-11-19T04:41:16;9.30;99.90
5842;DHT22;2947;52.276;9.946;2023-11-19T04:43:41;9.40;99.90
5842;DHT22;2947;52.276;9.946;2023-11-19T04:46:09;9.40;99.90
5842;DHT22;2947;52.276;9.946;2023-11-19T04:48:35;9.40;99.90
5842;DHT22;2947;52.276;9.946;2023-11-19T04:51:00;9.40;99.90
5842;DHT22;2947;52.276;9.946;2023-11-19T04:53:26;9.40;99.90
5842;DHT22;2947;52.276;9.946;2023-11-19T04:55:52;9.40;99.90
5842;DHT22;2947;52.276;9.946;2023-11-19T04:58:18;10.00;99.90
5842;DHT22;2947;52.276;9.946;2023-11-19T05:00:44;8.90;99.90
5842;DHT22;2947;52.276;9.946;2023-11-19T05:03:10;9.50;99.90
5842;DHT22;2947;52.276;9.946;2023-11-19T05:05:36;9.50;99.90
5842;DHT22;2947;52.276;9.946;2023-11-19T05:08:02;9.60;99.90
5842;DHT22;2947;52.276;9.946;2023-11-19T05:10:28;9.60;99.90
5842;DHT22;2947;52.276;9.946;2023-11-19T05:12:53;9.70;99.90
5842;DHT22;2947;52.276;9.946;2023-11-19T05:15:21;9.70;99.90
5842;DHT22;2947;52.276;9.946;2023-11-19T05:17:47;9.70;99.90
5842;DHT22;2947;52.276;9.946;2023-11-19T05:20:13;9.80;99.90
5842;DHT22;2947;52.276;9.946;2023-11-19T05:22:42;9.80;99.90
5842;DHT22;2947;52.276;9.946;2023-11-19T05:25:08;9.80;99.90
5842;DHT22;2947;52.276;9.946;2023-11-19T05:27:36;9.70;99.90
5842;DHT22;2947;52.276;9.946;2023-11-19T05:30:04;9.70;99.90
5842;DHT22;2947;52.276;9.946;2023-11-19T05:32:33;9.70;99.90
5842;DHT22;2947;52.276;9.946;2023-11-19T05:34:59;9.70;99.90
5842;DHT22;2947;52.276;9.946;2023-11-19T05:37:24;9.70;99.90
5842;DHT22;2947;52.276;9.946;2023-11-19T05:39:50;9.70;99.90
5842;DHT22;2947;52.276;9.946;2023-11-19T05:42:16;9.70;99.90
5842;DHT22;2947;52.276;9.946;2023-11-19T05:44:42;9.70;99.90
5842;DHT22;2947;52.276;9.946;2023-11-19T05:47:08;9.80;99.90
5842;DHT22;2947;52.276;9.946;2023-11-19T05:49:33;9.80;99.90
5842;DHT22;2947;52.276;9.946;2023-11-19T05:51:59;10.10;99.90
5842;DHT22;2947;52.276;9.946;2023-11-19T05:54:27;9.90;99.90
5842;DHT22;2947;52.276;9.946;2023-11-19T05:56:53;8.90;99.90
5842;DHT22;2947;52.276;9.946;2023-11-19T05:59:20;10.00;99.90
5842;DHT22;2947;52.276;9.946;2023-11-19T06:01:45;10.00;99.90
5842;DHT22;2947;52.276;9.946;2023-11-19T06:04:11;10.00;99.90
5842;DHT22;2947;52.276;9.946;2023-11-19T06:06:37;10.10;99.90
5842;DHT22;2947;52.276;9.946;2023-11-19T06:09:03;10.10;99.90
5842;DHT22;2947;52.276;9.946;2023-11-19T06:11:29;10.10;99.90
5842;DHT22;2947;52.276;9.946;2023-11-19T06:13:56;10.20;99.90
5842;DHT22;2947;52.276;9.946;2023-11-19T06:16:22;10.10;99.90
5842;DHT22;2947;52.276;9.946;2023-11-19T06:18:48;10.20;99.90
5842;DHT22;2947;52.276;9.946;2023-11-19T06:21:14;10.10;99.90
5842;DHT22;2947;52.276;9.946;2023-11-19T06:23:39;10.10;99.90
5842;DHT22;2947;52.276;9.946;2023-11-19T06:26:05;10.20;99.90
5842;DHT22;2947;52.276;9.946;2023-11-19T06:28:31;10.20;99.90
5842;DHT22;2947;52.276;9.946;2023-11-19T06:30:57;10.20;99.90
5842;DHT22;2947;52.276;9.946;2023-11-19T06:33:24;10.30;99.90
5842;DHT22;2947;52.276;9.946;2023-11-19T06:35:50;10.30;99.90
5842;DHT22;2947;52.276;9.946;2023-11-19T06:38:17;10.40;99.90
5842;DHT22;2947;52.276;9.946;2023-11-19T06:40:42;10.50;99.90
5842;DHT22;2947;52.276;9.946;2023-11-19T06:43:08;10.60;99.90
5842;DHT22;2947;52.276;9.946;2023-11-19T06:45:34;10.70;99.90
5842;DHT22;2947;52.276;9.946;2023-11-19T06:48:02;10.80;99.90
5842;DHT22;2947;52.276;9.946;2023-11-19T06:50:29;11.50;99.90
5842;DHT22;2947;52.276;9.946;2023-11-19T06:52:55;11.00;99.90
5842;DHT22;2947;52.276;9.946;2023-11-19T06:55:21;11.00;99.90
5842;DHT22;2947;52.276;9.946;2023-11-19T06:57:47;11.00;99.90
5842;DHT22;2947;52.276;9.946;2023-11-19T07:00:13;11.10;99.90
5842;DHT22;2947;52.276;9.946;2023-11-19T07:02:38;11.10;99.90
5842;DHT22;2947;52.276;9.946;2023-11-19T07:05:05;11.20;99.90
5842;DHT22;2947;52.276;9.946;2023-11-19T07:07:32;12.00;99.90
5842;DHT22;2947;52.276;9.946;2023-11-19T07:10:01;11.30;99.90
5842;DHT22;2947;52.276;9.946;2023-11-19T07:12:28;11.30;99.90
5842;DHT22;2947;52.276;9.946;2023-11-19T07:14:53;11.30;99.90
5842;DHT22;2947;52.276;9.946;2023-11-19T07:17:20;11.30;99.90
5842;DHT22;2947;52.276;9.946;2023-11-19T07:19:47;11.30;99.90
5842;DHT22;2947;52.276;9.946;2023-11-19T07:22:15;11.40;99.90
5842;DHT22;2947;52.276;9.946;2023-11-19T07:24:41;11.40;99.90
5842;DHT22;2947;52.276;9.946;2023-11-19T07:27:08;12.30;99.90
5842;DHT22;2947;52.276;9.946;2023-11-19T07:29:36;11.40;99.90
5842;DHT22;2947;52.276;9.946;2023-11-19T07:32:02;11.40;99.90
5842;DHT22;2947;52.276;9.946;2023-11-19T07:34:28;11.40;99.90
5842;DHT22;2947;52.276;9.946;2023-11-19T07:36:55;11.40;99.90
5842;DHT22;2947;52.276;9.946;2023-11-19T07:39:24;11.40;99.90
5842;DHT22;2947;52.276;9.946;2023-11-19T07:41:50;11.50;99.90
5842;DHT22;2947;52.276;9.946;2023-11-19T07:44:16;11.50;99.90
5842;DHT22;2947;52.276;9.946;2023-11-19T07:46:42;11.50;99.90
5842;DHT22;2947;52.276;9.946;2023-11-19T07:49:07;11.50;99.90
5842;DHT22;2947;52.276;9.946;2023-11-19T07:51:35;11.50;99.90
5842;DHT22;2947;52.276;9.946;2023-11-19T07:54:01;11.50;99.90
5842;DHT22;2947;52.276;9.946;2023-11-19T07:56:27;11.50;99.90
5842;DHT22;2947;52.276;9.946;2023-11-19T07:58:52;11.60;99.90
5842;DHT22;2947;52.276;9.946;2023-11-19T08:01:18;11.60;99.90
5842;DHT22;2947;52.276;9.946;2023-11-19T08:03:44;11.50;99.90
5842;DHT22;2947;52.276;9.946;2023-11-19T08:06:10;11.50;99.90
5842;DHT22;2947;52.276;9.946;2023-11-19T08:08:36;11.60;99.90
5842;DHT22;2947;52.276;9.946;2023-11-19T08:11:03;11.50;99.90
5842;DHT22;2947;52.276;9.946;2023-11-19T08:13:30;11.60;99.90
5842;DHT22;2947;52.276;9.946;2023-11-19T08:15:58;11.60;99.90
5842;DHT22;2947;52.276;9.946;2023-11-19T08:18:24;11.60;99.90
5842;DHT22;2947;52.276;9.946;2023-11-19T08:20:50;11.60;99.90
5842;DHT22;2947;52.276;9.946;2023-11-19T08:23:19;11.70;99.90
5842;DHT22;2947;52.276;9.946;2023-11-19T08:25:45;11.70;99.90
5842;DHT22;2947;52.276;9.946;2023-11-19T08:28:11;11.70;99.90
5842;DHT22;2947;52.276;9.946;2023-11-19T08:30:36;11.70;99.90
5842;DHT22;2947;52.276;9.946;2023-11-19T08:33:02;11.70;99.90
5842;DHT22;2947;52.276;9.946;2023-11-19T08:35:29;11.70;99.90
5842;DHT22;2947;52.276;9.946;2023-11-19T08:37:56;11.80;99.90
5842;DHT22;2947;52.276;9.946;2023-11-19T08:40:22;11.70;99.90
5842;DHT22;2947;52.276;9.946;2023-11-19T08:42:48;12.90;99.90
5842;DHT22;2947;52.276;9.946;2023-11-19T08:45:14;11.80;99.90
5842;DHT22;2947;52.276;9.946;2023-11-19T08:47:40;11.70;99.90
5842;DHT22;2947;52.276;9.946;2023-11-19T08:50:06;11.80;99.90
5842;DHT22;2947;52.276;9.946;2023-11-19T08:52:32;11.70;99.90
5842;DHT22;2947;52.276;9.946;2023-11-19T08:54:57;11.80;99.90
5842;DHT22;2947;52.276;9.946;2023-11-19T08:57:23;11.80;99.90
5842;DHT22;2947;52.276;9.946;2023-11-19T08:59:49;11.80;99.90
5842;DHT22;2947;52.276;9.946;2023-11-19T09:02:15;11.80;99.90
5842;DHT22;2947;52.276;9.946;2023-11-19T09:04:41;11.80;99.90
5842;DHT22;2947;52.276;9.946;2023-11-19T09:07:07;11.80;99.90
5842;DHT22;2947;52.276;9.946;2023-11-19T09:09:35;11.80;99.90
5842;DHT22;2947;52.276;9.946;2023-11-19T09:12:02;11.80;99.90
5842;DHT22;2947;52.276;9.946;2023-11-19T09:14:29;11.70;99.90
5842;DHT22;2947;52.276;9.946;2023-11-19T09:16:56;11.80;99.90
5842;DHT22;2947;52.276;9.946;2023-11-19T09:19:22;11.80;99.90
5842;DHT22;2947;52.276;9.946;2023-11-19T09:21:48;11.80;99.90
5842;DHT22;2947;52.276;9.946;2023-11-19T09:24:14;11.90;99.90
5842;DHT22;2947;52.276;9.946;2023-11-19T09:26:40;11.90;99.90
5842;DHT22;2947;52.276;9.946;2023-11-19T09:29:07;11.90;99.90
5842;DHT22;2947;52.276;9.946;2023-11-19T09:31:33;11.90;99.90
5842;DHT22;2947;52.276;9.946;2023-11-19T09:34:00;13.00;99.90
5842;DHT22;2947;52.276;9.946;2023-11-19T09:36:26;11.90;99.90
5842;DHT22;2947;52.276;9.946;2023-11-19T09:38:51;11.90;99.90
5842;DHT22;2947;52.276;9.946;2023-11-19T09:41:17;11.90;99.90
5842;DHT22;2947;52.276;9.946;2023-11-19T09:43:45;11.90;99.90
5842;DHT22;2947;52.276;9.946;2023-11-19T09:46:13;12.00;99.90
5842;DHT22;2947;52.276;9.946;2023-11-19T09:48:39;12.10;99.90
5842;DHT22;2947;52.276;9.946;2023-11-19T09:51:09;12.20;99.90
5842;DHT22;2947;52.276;9.946;2023-11-19T09:53:36;13.50;99.90
5842;DHT22;2947;52.276;9.946;2023-11-19T09:56:06;12.20;99.90
5842;DHT22;2947;52.276;9.946;2023-11-19T09:58:33;12.30;99.90
5842;DHT22;2947;52.276;9.946;2023-11-19T10:00:59;13.00;99.90
5842;DHT22;2947;52.276;9.946;2023-11-19T10:03:33;12.30;99.90
5842;DHT22;2947;52.276;9.946;2023-11-19T10:06:01;12.30;99.90
5842;DHT22;2947;52.276;9.946;2023-11-19T10:08:28;12.40;99.90
5842;DHT22;2947;52.276;9.946;2023-11-19T10:10:54;12.40;99.90
5842;DHT22;2947;52.276;9.946;2023-11-19T10:13:31;12.40;99.90
5842;DHT22;2947;52.276;9.946;2023-11-19T10:15:57;12.40;99.90
5842;DHT22;2947;52.276;9.946;2023-11-19T10:18:26;12.40;99.90
5842;DHT22;2947;52.276;9.946;2023-11-19T10:20:53;12.50;99.90
5842;DHT22;2947;52.276;9.946;2023-11-19T10:23:20;12.50;99.90
5842;DHT22;2947;52.276;9.946;2023-11-19T10:25:46;11.50;99.90
5842;DHT22;2947;52.276;9.946;2023-11-19T10:28:12;12.50;99.90
5842;DHT22;2947;52.276;9.946;2023-11-19T10:30:41;12.50;99.90
5842;DHT22;2947;52.276;9.946;2023-11-19T10:33:09;12.50;99.90
5842;DHT22;2947;52.276;9.946;2023-11-19T10:35:57;12.40;99.90
5842;DHT22;2947;52.276;9.946;2023-11-19T10:38:24;12.50;99.90
5842;DHT22;2947;52.276;9.946;2023-11-19T10:40:51;12.50;99.90
5842;DHT22;2947;52.276;9.946;2023-11-19T10:43:17;12.50;99.90
5842;DHT22;2947;52.276;9.946;2023-11-19T10:45:43;12.60;99.90
5842;DHT22;2947;52.276;9.946;2023-11-19T10:48:09;12.60;99.90
5842;DHT22;2947;52.276;9.946;2023-11-19T10:50:37;12.60;99.90
5842;DHT22;2947;52.276;9.946;2023-11-19T10:53:04;12.60;99.90
5842;DHT22;2947;52.276;9.946;2023-11-19T10:55:34;12.70;99.90
5842;DHT22;2947;52.276;9.946;2023-11-19T10:58:10;12.70;99.90
5842;DHT22;2947;52.276;9.946;2023-11-19T11:00:47;12.80;99.90
5842;DHT22;2947;52.276;9.946;2023-11-19T11:03:18;12.80;99.90
5842;DHT22;2947;52.276;9.946;2023-11-19T11:05:48;12.90;99.90
5842;DHT22;2947;52.276;9.946;2023-11-19T11:08:15;13.00;99.90
5842;DHT22;2947;52.276;9.946;2023-11-19T11:10:44;14.00;99.90
5842;DHT22;2947;52.276;9.946;2023-11-19T11:13:23;13.00;99.90
5842;DHT22;2947;52.276;9.946;2023-11-19T11:15:50;13.10;99.90
5842;DHT22;2947;52.276;9.946;2023-11-19T11:18:16;13.10;99.90
5842;DHT22;2947;52.276;9.946;2023-11-19T11:20:44;13.10;99.90
5842;DHT22;2947;52.276;9.946;2023-11-19T11:23:37;13.20;99.90
5842;DHT22;2947;52.276;9.946;2023-11-19T11:34:53;13.10;99.90
5842;DHT22;2947;52.276;9.946;2023-11-19T11:37:43;13.30;99.90
5842;DHT22;2947;52.276;9.946;2023-11-19T11:40:17;13.30;99.90
5842;DHT22;2947;52.276;9.946;2023-11-19T11:42:44;13.30;99.90
5842;DHT22;2947;52.276;9.946;2023-11-19T11:45:11;13.30;99.10
5842;DHT22;2947;52.276;9.946;2023-11-19T11:50:16;14.50;99.90
5842;DHT22;2947;52.276;9.946;2023-11-19T11:58:40;13.40;99.90
5842;DHT22;2947;52.276;9.946;2023-11-19T12:01:04;13.50;97.30
5842;DHT22;2947;52.276;9.946;2023-11-19T12:03:33;13.50;74.60
5842;DHT22;2947;52.276;9.946;2023-11-19T12:05:59;13.50;69.60
5842;DHT22;2947;52.276;9.946;2023-11-19T12:08:27;13.50;38.20
5842;DHT22;2947;52.276;9.946;2023-11-19T12:10:56;13.50;46.50
5842;DHT22;2947;52.276;9.946;2023-11-19T12:13:23;13.60;85.30
5842;DHT22;2947;52.276;9.946;2023-11-19T12:18:30;13.50;40.50
5842;DHT22;2947;52.276;9.946;2023-11-19T12:21:00;13.60;61.20
5842;DHT22;2947;52.276;9.946;2023-11-19T12:23:34;13.60;64.10
5842;DHT22;2947;52.276;9.946;2023-11-19T12:26:00;13.60;53.90
5842;DHT22;2947;52.276;9.946;2023-11-19T12:28:26;13.70;42.80
5842;DHT22;2947;52.276;9.946;2023-11-19T12:30:53;13.60;56.00
5842;DHT22;2947;52.276;9.946;2023-11-19T12:33:19;13.70;46.00
5842;DHT22;2947;52.276;9.946;2023-11-19T12:35:47;13.60;65.10
5842;DHT22;2947;52.276;9.946;2023-11-19T12:41:09;13.50;81.10
5842;DHT22;2947;52.276;9.946;2023-11-19T12:43:37;14.00;54.70
5842;DHT22;2947;52.276;9.946;2023-11-19T12:46:23;13.50;51.50
5842;DHT22;2947;52.276;9.946;2023-11-19T12:48:49;13.40;41.70
5842;DHT22;2947;52.276;9.946;2023-11-19T12:51:16;13.30;36.90
5842;DHT22;2947;52.276;9.946;2023-11-19T12:53:49;14.10;60.00
5842;DHT22;2947;52.276;9.946;2023-11-19T12:56:23;13.30;48.50
5842;DHT22;2947;52.276;9.946;2023-11-19T12:58:49;13.20;73.10
5842;DHT22;2947;52.276;9.946;2023-11-19T13:01:17;13.10;54.00
5842;DHT22;2947;52.276;9.946;2023-11-19T13:03:45;13.00;72.30
5842;DHT22;2947;52.276;9.946;2023-11-19T13:06:12;13.00;68.60
5842;DHT22;2947;52.276;9.946;2023-11-19T13:08:49;12.80;95.10
5842;DHT22;2947;52.276;9.946;2023-11-19T13:11:31;12.90;99.90
5842;DHT22;2947;52.276;9.946;2023-11-19T13:14:00;12.90;99.90
5842;DHT22;2947;52.276;9.946;2023-11-19T13:16:28;12.90;99.90
5842;DHT22;2947;52.276;9.946;2023-11-19T13:18:54;12.80;99.90
5842;DHT22;2947;52.276;9.946;2023-11-19T13:21:20;12.70;99.90
5842;DHT22;2947;52.276;9.946;2023-11-19T13:23:47;11.40;99.90
5842;DHT22;2947;52.276;9.946;2023-11-19T13:26:13;12.70;99.90
5842;DHT22;2947;52.276;9.946;2023-11-19T13:28:39;12.70;99.90
5842;DHT22;2947;52.276;9.946;2023-11-19T13:31:05;12.70;99.90
5842;DHT22;2947;52.276;9.946;2023-11-19T13:33:31;12.60;99.90
5842;DHT22;2947;52.276;9.946;2023-11-19T13:35:56;12.60;99.90
5842;DHT22;2947;52.276;9.946;2023-11-19T13:38:22;12.60;99.90
5842;DHT22;2947;52.276;9.946;2023-11-19T13:40:51;12.50;99.90
5842;DHT22;2947;52.276;9.946;2023-11-19T13:43:17;12.50;99.90
5842;DHT22;2947;52.276;9.946;2023-11-19T13:45:43;12.40;99.90
5842;DHT22;2947;52.276;9.946;2023-11-19T13:48:08;12.40;99.90
5842;DHT22;2947;52.276;9.946;2023-11-19T13:50:34;12.40;99.90
5842;DHT22;2947;52.276;9.946;2023-11-19T13:53:00;12.40;99.90
5842;DHT22;2947;52.276;9.946;2023-11-19T13:55:27;12.40;99.90
5842;DHT22;2947;52.276;9.946;2023-11-19T13:57:53;12.40;99.90
5842;DHT22;2947;52.276;9.946;2023-11-19T14:00:19;13.20;99.90
5842;DHT22;2947;52.276;9.946;2023-11-19T14:02:46;12.40;99.90
5842;DHT22;2947;52.276;9.946;2023-11-19T14:05:13;12.40;99.90
5842;DHT22;2947;52.276;9.946;2023-11-19T14:07:39;12.40;99.90
5842;DHT22;2947;52.276;9.946;2023-11-19T14:10:07;12.40;99.90
5842;DHT22;2947;52.276;9.946;2023-11-19T14:12:39;12.40;99.90
5842;DHT22;2947;52.276;9.946;2023-11-19T14:15:07;12.40;99.90
5842;DHT22;2947;52.276;9.946;2023-11-19T14:17:35;12.30;99.90
5842;DHT22;2947;52.276;9.946;2023-11-19T14:20:02;12.40;99.90
5842;DHT22;2947;52.276;9.946;2023-11-19T14:22:40;12.30;99.90
5842;DHT22;2947;52.276;9.946;2023-11-19T14:25:10;12.40;99.90
5842;DHT22;2947;52.276;9.946;2023-11-19T14:27:41;12.30;99.90
5842;DHT22;2947;52.276;9.946;2023-11-19T14:30:08;12.30;99.90
5842;DHT22;2947;52.276;9.946;2023-11-19T14:32:36;12.30;99.90
5842;DHT22;2947;52.276;9.946;2023-11-19T14:35:04;12.40;99.90
5842;DHT22;2947;52.276;9.946;2023-11-19T14:37:30;12.30;99.90
5842;DHT22;2947;52.276;9.946;2023-11-19T14:40:00;12.40;99.90
5842;DHT22;2947;52.276;9.946;2023-11-19T14:42:27;12.40;99.90
5842;DHT22;2947;52.276;9.946;2023-11-19T14:44:53;12.80;99.90
5842;DHT22;2947;52.276;9.946;2023-11-19T14:47:20;12.40;99.90
5842;DHT22;2947;52.276;9.946;2023-11-19T14:49:45;12.40;99.90
5842;DHT22;2947;52.276;9.946;2023-11-19T14:52:11;12.30;99.90
5842;DHT22;2947;52.276;9.946;2023-11-19T14:54:37;12.30;99.90
5842;DHT22;2947;52.276;9.946;2023-11-19T14:57:07;12.40;99.90
5842;DHT22;2947;52.276;9.946;2023-11-19T14:59:34;12.50;99.90
5842;DHT22;2947;52.276;9.946;2023-11-19T15:02:00;12.30;99.90
5842;DHT22;2947;52.276;9.946;2023-11-19T15:04:26;12.30;99.90
5842;DHT22;2947;52.276;9.946;2023-11-19T15:06:52;12.30;99.90
5842;DHT22;2947;52.276;9.946;2023-11-19T15:09:19;12.30;99.90
5842;DHT22;2947;52.276;9.946;2023-11-19T15:11:46;12.30;99.90
5842;DHT22;2947;52.276;9.946;2023-11-19T15:14:13;12.20;99.90
5842;DHT22;2947;52.276;9.946;2023-11-19T15:16:47;12.30;99.90
5842;DHT22;2947;52.276;9.946;2023-11-19T15:19:16;12.20;99.90
5842;DHT22;2947;52.276;9.946;2023-11-19T15:21:42;12.20;99.90
5842;DHT22;2947;52.276;9.946;2023-11-19T15:24:08;12.20;99.90
5842;DHT22;2947;52.276;9.946;2023-11-19T15:26:35;11.10;99.90
5842;DHT22;2947;52.276;9.946;2023-11-19T15:29:01;12.20;99.90
5842;DHT22;2947;52.276;9.946;2023-11-19T15:31:28;12.10;99.90
5842;DHT22;2947;52.276;9.946;2023-11-19T15:33:55;12.10;99.90
5842;DHT22;2947;52.276;9.946;2023-11-19T15:36:21;12.10;99.90
5842;DHT22;2947;52.276;9.946;2023-11-19T15:38:47;12.00;99.90
5842;DHT22;2947;52.276;9.946;2023-11-19T15:41:13;12.00;99.90
5842;DHT22;2947;52.276;9.946;2023-11-19T15:43:39;12.00;99.90
5842;DHT22;2947;52.276;9.946;2023-11-19T15:46:08;12.10;99.90
5842;DHT22;2947;52.276;9.946;2023-11-19T15:48:34;11.90;99.90
5842;DHT22;2947;52.276;9.946;2023-11-19T15:51:00;11.90;99.90
5842;DHT22;2947;52.276;9.946;2023-11-19T15:53:27;11.80;99.90
5842;DHT22;2947;52.276;9.946;2023-11-19T15:55:53;11.80;99.90
5842;DHT22;2947;52.276;9.946;2023-11-19T15:58:19;11.80;99.90
5842;DHT22;2947;52.276;9.946;2023-11-19T16:00:46;11.80;99.90
5842;DHT22;2947;52.276;9.946;2023-11-19T16:03:13;11.80;99.90
5842;DHT22;2947;52.276;9.946;2023-11-19T16:05:40;11.80;99.90
5842;DHT22;2947;52.276;9.946;2023-11-19T16:08:06;11.70;99.90
5842;DHT22;2947;52.276;9.946;2023-11-19T16:10:33;11.70;99.90
5842;DHT22;2947;52.276;9.946;2023-11-19T16:12:59;11.80;99.90
5842;DHT22;2947;52.276;9.946;2023-11-19T16:15:25;11.80;99.90
5842;DHT22;2947;52.276;9.946;2023-11-19T16:17:51;11.80;99.90
5842;DHT22;2947;52.276;9.946;2023-11-19T16:20:17;11.80;99.90
5842;DHT22;2947;52.276;9.946;2023-11-19T16:22:42;11.80;99.90
5842;DHT22;2947;52.276;9.946;2023-11-19T16:25:08;11.70;99.90
5842;DHT22;2947;52.276;9.946;2023-11-19T16:27:35;11.70;99.90
5842;DHT22;2947;52.276;9.946;2023-11-19T16:30:01;11.60;99.90
5842;DHT22;2947;52.276;9.946;2023-11-19T16:32:27;12.20;99.90